Olaton, Kentucky
Current Conditions -  °F | °C
As of 6:56 AM on Sunday 23 Nov 2014 (Local Time) from KOWB Reporting Station
Light Rain Light Rain  
Wind Chill: 53°   Ceiling: 3700
Heat Index: 53°   Visibility: 8mi
Dew Point: 43°   Wind: 9mph
Humidity: 69%   Direction: 150°SSE
Pressure: 29.89"   Gusts: NA
Location:  37.53°N, 86.69°W
Report Text: KOWB 231256Z 15008KT 8SM -RA BKN037 OVC060 12/06 A2989 RMK AO2 T01160061 RAB50 P0000 SLP123
Loading
Personal Weather Stations






























Interactive Weather Map New forecast layout! Learn more

10-Day Weather Forecast

Advertisements
Track Severe Weather on mobile